Aérodrome :
LOGIN :

S'inscrire | Disclaimer

   EN    FR    IT 

 










Légende :    VFR   VFR Marginal   IFR   IFR Intensif   IFR Très Intensif
Visi : 
Plafond : 
>= 8 km
>= 3000ft
5 à 8 km
1000 à 3000 ft
1500m à 5 km
500 à 1000 ft
800 à 1500m
200 à 500 ft
< 800m
< 200 ft
Symboles :   Orages  Brouillard  Fortes neiges  Fortes précipitations  Vent > 20 kt
SIGMETs :   Divers  Orages  Givrage  Turbulence  Onde Orograph.  Cendres Volcan.






- Altitude de l'aérodrome : 517 ft
- Code IATA : GML


UKKM - Antonov

DERNIER METAR :
  • 121530Z AUTO 33008MPS 9999 VCSH FEW021CB 21/15 Q1014

METARs EXPIRÉS :
  • 121500Z AUTO 34008MPS 9999 // FEW022/// 21/16 Q1014
  • 121430Z AUTO 33007MPS 9999 VCSH FEW022CB 21/15 Q1014
  • 121400Z AUTO 33008MPS 9999 VCSH FEW026CB 22/16 Q1014
  • 121330Z AUTO 34007MPS 9999 SHUP SCT029CB 24/17 Q1013
  • 121300Z AUTO 34007MPS 9999 SHUP FEW090CB 26/18 Q1013

TAF TAF UKKM
Valide du 12 à 06h jusqu'au 13 à 06h UTC


120552Z 1206/1306 34003G08MPS 9999 SCT040 TX29/1212Z TN11/1302Z
TEMPO 1210/1220 VRB12G18MPS 1200 TSRAGR SQ BKN007 BKN015CB
TEMPO 1220/1306 2100 -SHRA BR BKN006 SCT015CB



MET'MAP, la Météo Aéronautique d'un coup d'oeil ! - Copyright ORBIFLY Décembre 2007 - Disclaimer

ORBIFLY MET'MAP TEAM :

Programmation & Développement : Alexandra Zaïnal
Sur une idée originale de : Baudouin d'Aumeries
Assistance à la programmation : Marc-Olivier Méhu
Soutien technique & logistique : Manuel Goepfert

Contact : metmap@orbifly.com




SOURCES & CREDITS :

   NOAA